Time;durP1;ratioP1;P1;durP2;ratioP2;P2;SDS_P1;SDS_P2;PMS_P1;PMS_P2;Temp;Humidity;BMP_temperature;BMP_pressure;BME280_temperature;BME280_humidity;BME280_pressure;Samples;Min_cycle;Max_cycle;Signal;HPM_P1;HPM_P2
2021/05/07 00:00:36;;;;;;;0.28;0.28;;;21.00;45.10;;;;;;6242603;28;20214;-75
2021/05/07 00:03:37;;;;;;;0.47;0.40;;;21.00;45.10;;;;;;6242563;28;20326;-75
2021/05/07 00:06:38;;;;;;;0.35;0.35;;;21.00;45.00;;;;;;6243074;28;20112;-75
2021/05/07 00:09:39;;;;;;;0.47;0.35;;;21.00;45.00;;;;;;6242761;28;20391;-75
2021/05/07 00:12:40;;;;;;;0.40;0.30;;;21.00;45.20;;;;;;6242252;28;20052;-75
2021/05/07 00:15:41;;;;;;;0.40;0.40;;;21.00;45.80;;;;;;6242291;28;20404;-75
2021/05/07 00:18:42;;;;;;;0.65;0.30;;;21.00;45.20;;;;;;6240614;28;20092;-75
2021/05/07 00:21:44;;;;;;;0.30;0.30;;;21.00;45.00;;;;;;6240932;28;20052;-74
2021/05/07 00:24:44;;;;;;;0.52;0.47;;;21.00;45.00;;;;;;6242500;28;20032;-74
2021/05/07 00:27:45;;;;;;;0.20;0.20;;;21.00;45.00;;;;;;6242098;28;20037;-75
2021/05/07 00:30:46;;;;;;;0.75;0.30;;;21.00;45.10;;;;;;6241682;28;20026;-75
2021/05/07 00:33:46;;;;;;;0.40;0.30;;;21.00;45.20;;;;;;6242735;28;20332;-75
2021/05/07 00:36:48;;;;;;;0.40;0.40;;;21.00;45.10;;;;;;6243123;28;20030;-75
2021/05/07 00:39:49;;;;;;;0.30;0.30;;;21.00;45.10;;;;;;6247244;28;20437;-75
2021/05/07 00:42:49;;;;;;;0.40;0.30;;;21.00;45.10;;;;;;6247142;28;20029;-75
2021/05/07 00:45:51;;;;;;;0.43;0.35;;;21.00;45.20;;;;;;6246825;28;20029;-75
2021/05/07 00:48:52;;;;;;;0.47;0.40;;;20.90;45.00;;;;;;6242322;28;20099;-75
2021/05/07 00:51:52;;;;;;;0.30;0.30;;;21.00;45.10;;;;;;6246461;28;20049;-75
2021/05/07 00:54:53;;;;;;;0.30;0.22;;;21.00;45.10;;;;;;6244646;28;20020;-75
2021/05/07 00:57:54;;;;;;;0.30;0.28;;;21.00;45.20;;;;;;6246372;28;20025;-75
2021/05/07 01:00:55;;;;;;;0.30;0.30;;;20.90;45.20;;;;;;6246775;28;20029;-75
2021/05/07 01:03:55;;;;;;;1.20;0.52;;;21.00;45.20;;;;;;6244381;28;20063;-75
2021/05/07 01:06:56;;;;;;;0.47;0.38;;;21.00;45.10;;;;;;6244239;28;20491;-75
2021/05/07 01:09:56;;;;;;;0.30;0.30;;;20.90;45.10;;;;;;6246351;28;20053;-75
2021/05/07 01:12:57;;;;;;;0.40;0.40;;;21.00;45.30;;;;;;6244189;28;20084;-77
2021/05/07 01:15:58;;;;;;;0.30;0.30;;;20.90;45.20;;;;;;6246404;28;20028;-75
2021/05/07 01:19:00;;;;;;;0.63;0.32;;;20.90;45.20;;;;;;6245558;28;20021;-75
2021/05/07 01:22:00;;;;;;;0.50;0.40;;;21.00;45.30;;;;;;6245633;28;20025;-75
2021/05/07 01:25:01;;;;;;;0.30;0.20;;;20.90;45.20;;;;;;6246090;28;20037;-75
2021/05/07 01:28:04;;;;;;;0.52;0.50;;;20.90;45.80;;;;;;6246011;28;20380;-75
2021/05/07 01:31:05;;;;;;;1.23;0.50;;;20.90;45.20;;;;;;6244096;28;20560;-75
2021/05/07 01:34:06;;;;;;;0.43;0.40;;;21.00;45.30;;;;;;6245540;28;20057;-75
2021/05/07 01:37:06;;;;;;;0.30;0.30;;;21.00;45.30;;;;;;6245573;28;20029;-75
2021/05/07 01:40:11;;;;;;;0.30;0.30;;;20.90;45.20;;;;;;6245953;28;20120;-74
2021/05/07 01:43:12;;;;;;;0.40;0.40;;;20.90;45.20;;;;;;6245752;28;20353;-75
2021/05/07 01:46:13;;;;;;;0.30;0.30;;;20.90;45.20;;;;;;6245404;28;20044;-75
2021/05/07 01:49:13;;;;;;;0.40;0.30;;;21.00;45.30;;;;;;6244468;28;20057;-74
2021/05/07 01:52:14;;;;;;;0.30;0.22;;;20.90;45.20;;;;;;6243690;28;20472;-74
2021/05/07 01:55:21;;;;;;;0.40;0.30;;;20.90;45.30;;;;;;6245774;28;20025;-75
2021/05/07 01:58:21;;;;;;;0.35;0.30;;;20.90;45.20;;;;;;6244986;28;20148;-75
2021/05/07 02:01:22;;;;;;;1.00;0.50;;;20.90;45.30;;;;;;6243326;28;20036;-74
2021/05/07 02:04:23;;;;;;;0.75;0.38;;;21.00;45.30;;;;;;6244443;28;20269;-74
2021/05/07 02:07:24;;;;;;;0.20;0.20;;;20.90;45.30;;;;;;6245460;28;20036;-74
2021/05/07 02:10:27;;;;;;;0.38;0.30;;;20.90;45.30;;;;;;6244788;28;20017;-74
2021/05/07 02:13:27;;;;;;;0.40;0.30;;;20.90;45.20;;;;;;6244579;28;20023;-75
2021/05/07 02:16:28;;;;;;;0.40;0.40;;;20.90;45.30;;;;;;6244815;28;20484;-74
2021/05/07 02:19:29;;;;;;;0.40;0.40;;;20.90;45.30;;;;;;6244085;28;20108;-75
2021/05/07 02:22:30;;;;;;;0.30;0.28;;;20.90;45.20;;;;;;6244539;28;20036;-74
2021/05/07 02:25:31;;;;;;;0.52;0.45;;;20.90;45.30;;;;;;6240868;28;20044;-75
2021/05/07 02:28:31;;;;;;;0.30;0.28;;;20.90;45.30;;;;;;6243655;28;20021;-74
2021/05/07 02:31:32;;;;;;;0.55;0.35;;;20.90;45.30;;;;;;6244769;28;20025;-74
2021/05/07 02:34:33;;;;;;;1.05;0.35;;;20.90;45.30;;;;;;6244136;28;20116;-74
2021/05/07 02:37:33;;;;;;;0.35;0.35;;;20.90;45.30;;;;;;6244421;28;20014;-75
2021/05/07 02:40:34;;;;;;;0.47;0.40;;;20.90;45.40;;;;;;6244589;28;20357;-74
2021/05/07 02:43:34;;;;;;;0.40;0.30;;;20.90;45.30;;;;;;6245069;28;20110;-74
2021/05/07 02:46:36;;;;;;;0.40;0.40;;;20.90;45.30;;;;;;6244536;28;20092;-75
2021/05/07 02:49:38;;;;;;;0.82;0.50;;;20.90;45.40;;;;;;6242625;28;20036;-75
2021/05/07 02:52:40;;;;;;;0.40;0.40;;;20.90;45.30;;;;;;6244258;28;20136;-74
2021/05/07 02:55:40;;;;;;;0.43;0.43;;;20.90;45.20;;;;;;6244161;28;20039;-74
2021/05/07 02:58:41;;;;;;;0.30;0.30;;;20.90;45.30;;;;;;6243925;28;20025;-74
2021/05/07 03:01:42;;;;;;;0.50;0.40;;;20.90;45.30;;;;;;6244537;28;20109;-74
2021/05/07 03:04:42;;;;;;;0.40;0.40;;;20.90;45.40;;;;;;6243601;28;20060;-75
2021/05/07 03:07:43;;;;;;;0.70;0.43;;;20.90;45.40;;;;;;6242182;28;20171;-74
2021/05/07 03:10:43;;;;;;;0.60;0.43;;;20.90;45.30;;;;;;6243262;28;20420;-75
2021/05/07 03:13:44;;;;;;;0.40;0.30;;;20.90;45.50;;;;;;6244434;28;20022;-74
2021/05/07 03:16:44;;;;;;;0.40;0.40;;;20.90;45.40;;;;;;6243509;28;20041;-74
2021/05/07 03:19:45;;;;;;;0.60;0.40;;;20.90;45.40;;;;;;6243267;28;20381;-74
2021/05/07 03:22:45;;;;;;;0.30;0.30;;;20.90;45.30;;;;;;6243238;28;20072;-75
2021/05/07 03:25:46;;;;;;;0.45;0.40;;;20.90;45.40;;;;;;6243024;28;20175;-74
2021/05/07 03:28:47;;;;;;;0.45;0.40;;;20.90;45.40;;;;;;6243545;28;20040;-74
2021/05/07 03:31:47;;;;;;;0.30;0.30;;;20.90;45.30;;;;;;6243229;28;20055;-74
2021/05/07 03:34:49;;;;;;;0.82;0.60;;;20.90;45.40;;;;;;6241822;28;20050;-75
2021/05/07 03:37:49;;;;;;;0.40;0.40;;;20.90;45.30;;;;;;6241294;28;20033;-74
2021/05/07 03:40:50;;;;;;;0.30;0.30;;;20.90;45.40;;;;;;6240746;28;20112;-74
2021/05/07 03:43:51;;;;;;;0.50;0.40;;;20.90;45.40;;;;;;6241407;28;20120;-74
2021/05/07 03:46:51;;;;;;;0.50;0.50;;;20.90;45.40;;;;;;6242633;28;20029;-74
2021/05/07 03:49:52;;;;;;;0.50;0.50;;;20.90;45.50;;;;;;6241319;28;20033;-74
2021/05/07 03:52:53;;;;;;;1.00;0.40;;;20.90;45.50;;;;;;6242866;28;20076;-74
2021/05/07 03:55:56;;;;;;;0.35;0.35;;;20.90;45.50;;;;;;6242808;28;20219;-74
2021/05/07 03:58:57;;;;;;;0.60;0.40;;;20.90;45.50;;;;;;6242158;28;20480;-74
2021/05/07 04:01:57;;;;;;;0.35;0.30;;;20.90;45.60;;;;;;6242301;28;20022;-74
2021/05/07 04:04:58;;;;;;;0.30;0.30;;;20.90;45.60;;;;;;6242791;28;20026;-75
2021/05/07 04:14:20;;;;;;;0.60;0.30;;;20.90;45.40;;;;;;6239519;28;20037;-75
2021/05/07 04:17:20;;;;;;;0.38;0.38;;;20.90;45.50;;;;;;6250954;28;20431;-74
2021/05/07 04:20:21;;;;;;;0.30;0.30;;;20.90;45.50;;;;;;6250676;28;20358;-74
2021/05/07 04:23:21;;;;;;;0.57;0.40;;;20.90;45.50;;;;;;6251043;28;20030;-74
2021/05/07 04:26:22;;;;;;;0.60;0.30;;;20.90;45.50;;;;;;6250442;28;20033;-74
2021/05/07 04:29:23;;;;;;;0.50;0.40;;;20.90;45.50;;;;;;6251118;28;20060;-74
2021/05/07 04:32:24;;;;;;;0.30;0.30;;;20.90;45.60;;;;;;6249128;28;20022;-74
2021/05/07 04:35:25;;;;;;;0.43;0.30;;;20.90;45.50;;;;;;6250344;28;20088;-74
2021/05/07 04:38:25;;;;;;;0.40;0.40;;;20.90;45.40;;;;;;6250431;28;20053;-74
2021/05/07 04:41:26;;;;;;;0.30;0.30;;;20.90;45.40;;;;;;6250544;28;20053;-74
2021/05/07 04:44:28;;;;;;;0.50;0.47;;;20.90;45.50;;;;;;6247538;28;20488;-74
2021/05/07 04:47:28;;;;;;;0.85;0.30;;;20.90;45.50;;;;;;6250246;28;20067;-74
2021/05/07 04:50:29;;;;;;;0.30;0.30;;;20.90;45.50;;;;;;6251013;28;20017;-74
2021/05/07 04:53:29;;;;;;;0.40;0.35;;;20.90;45.40;;;;;;6249853;28;20030;-74
2021/05/07 04:56:30;;;;;;;0.40;0.40;;;20.90;45.40;;;;;;6238086;28;20033;-74
2021/05/07 04:59:33;;;;;;;6.15;0.40;;;20.90;45.70;;;;;;6248111;28;20391;-74
2021/05/07 05:02:34;;;;;;;4.75;1.13;;;20.80;45.60;;;;;;6245678;28;20074;-74
2021/05/07 05:05:35;;;;;;;2.00;0.80;;;20.80;43.90;;;;;;6249006;28;20484;-74
2021/05/07 05:08:36;;;;;;;1.42;0.70;;;20.90;43.90;;;;;;6255897;28;20080;-74
2021/05/07 05:11:37;;;;;;;5.65;0.90;;;20.90;44.00;;;;;;6248571;28;20550;-74
2021/05/07 05:14:37;;;;;;;0.88;0.70;;;20.90;44.30;;;;;;6259864;28;20025;-74
2021/05/07 05:17:38;;;;;;;1.48;0.70;;;20.90;44.50;;;;;;6249067;28;20079;-74
2021/05/07 05:20:38;;;;;;;1.85;0.82;;;20.90;44.50;;;;;;6249680;28;20415;-75
2021/05/07 05:23:40;;;;;;;2.72;1.15;;;20.90;44.60;;;;;;6239636;28;20093;-76
2021/05/07 05:26:41;;;;;;;2.17;0.90;;;20.90;44.80;;;;;;6240465;28;20030;-75
2021/05/07 05:29:41;;;;;;;2.35;0.80;;;20.90;44.70;;;;;;6244463;28;20404;-75
2021/05/07 05:32:42;;;;;;;5.07;1.13;;;21.00;44.80;;;;;;6243727;28;20132;-75
2021/05/07 05:35:44;;;;;;;3.15;0.60;;;20.90;44.70;;;;;;6242382;28;20475;-75
2021/05/07 05:38:44;;;;;;;1.77;0.80;;;20.90;44.70;;;;;;6245207;28;20041;-76
2021/05/07 05:41:45;;;;;;;1.38;0.88;;;20.90;44.90;;;;;;6243559;28;20044;-75
2021/05/07 05:44:46;;;;;;;2.92;0.70;;;20.90;44.90;;;;;;6244400;28;20030;-75
2021/05/07 05:47:46;;;;;;;1.27;0.68;;;20.90;44.90;;;;;;6244794;28;20069;-75
2021/05/07 05:50:49;;;;;;;1.02;0.70;;;20.90;45.00;;;;;;6245172;28;20064;-75
2021/05/07 05:53:49;;;;;;;1.25;0.60;;;20.90;45.10;;;;;;6244825;28;20059;-75
2021/05/07 05:56:50;;;;;;;1.23;0.60;;;20.90;45.00;;;;;;6245041;28;20523;-75
2021/05/07 05:59:51;;;;;;;1.48;0.50;;;20.90;45.00;;;;;;6238747;28;20034;-75
2021/05/07 06:02:51;;;;;;;1.35;0.85;;;20.90;45.10;;;;;;6246066;28;20108;-75
2021/05/07 06:05:52;;;;;;;1.85;0.70;;;20.90;45.10;;;;;;6247478;28;20044;-75
2021/05/07 06:08:53;;;;;;;1.23;0.80;;;20.90;45.10;;;;;;6241992;28;20033;-75
2021/05/07 06:11:53;;;;;;;1.42;0.57;;;20.90;45.10;;;;;;6247505;28;20036;-75
2021/05/07 06:14:54;;;;;;;1.15;0.63;;;20.90;45.10;;;;;;6252069;28;20036;-75
2021/05/07 06:17:54;;;;;;;1.20;0.82;;;20.90;45.20;;;;;;6260042;28;20030;-75
2021/05/07 06:20:55;;;;;;;3.40;0.70;;;20.90;45.30;;;;;;6246736;28;20028;-75
2021/05/07 06:23:55;;;;;;;1.02;0.60;;;20.90;45.30;;;;;;6247705;28;20033;-75
2021/05/07 06:26:56;;;;;;;1.13;0.80;;;20.90;45.30;;;;;;6246831;28;20045;-75
2021/05/07 06:29:56;;;;;;;1.92;0.73;;;20.90;45.30;;;;;;6247132;28;20025;-76
2021/05/07 06:32:57;;;;;;;1.23;0.60;;;20.90;45.30;;;;;;6250725;28;20387;-76
2021/05/07 06:35:58;;;;;;;0.60;0.50;;;20.90;45.30;;;;;;6245921;28;20049;-75
2021/05/07 06:38:58;;;;;;;1.10;0.70;;;21.00;45.30;;;;;;6245558;28;20538;-74
2021/05/07 06:41:59;;;;;;;5.65;0.70;;;21.00;45.20;;;;;;6246654;28;20025;-75
2021/05/07 06:45:00;;;;;;;5.60;1.00;;;20.90;45.20;;;;;;6246344;28;20030;-75
2021/05/07 06:48:01;;;;;;;4.18;0.80;;;21.00;45.30;;;;;;6246351;28;20030;-75
2021/05/07 06:51:01;;;;;;;1.52;0.70;;;21.00;45.30;;;;;;6246046;28;20120;-75
2021/05/07 06:54:02;;;;;;;2.58;0.65;;;21.00;45.30;;;;;;6245930;28;20384;-76
2021/05/07 06:57:03;;;;;;;4.63;0.80;;;20.90;45.20;;;;;;6246836;28;20021;-75
2021/05/07 07:00:06;;;;;;;2.45;0.65;;;20.90;45.40;;;;;;6246547;28;20044;-75
2021/05/07 07:03:06;;;;;;;3.65;0.75;;;20.90;45.40;;;;;;6244694;28;20037;-75
2021/05/07 07:06:07;;;;;;;2.75;0.93;;;20.90;45.30;;;;;;6255530;28;20060;-75
2021/05/07 07:09:07;;;;;;;2.88;0.75;;;21.00;45.30;;;;;;6271417;28;20549;-75
2021/05/07 07:12:08;;;;;;;4.20;0.77;;;20.90;45.30;;;;;;6251523;28;20044;-75
2021/05/07 07:15:09;;;;;;;1.85;0.65;;;20.90;45.30;;;;;;6244323;28;20048;-75
2021/05/07 07:18:10;;;;;;;0.63;0.50;;;20.90;45.30;;;;;;6246122;28;20021;-75
2021/05/07 07:21:11;;;;;;;2.70;0.82;;;20.90;45.50;;;;;;6245840;28;20123;-75
2021/05/07 07:24:11;;;;;;;8.52;1.30;;;20.90;45.20;;;;;;6245611;28;20030;-75
2021/05/07 07:27:12;;;;;;;4.03;1.08;;;20.90;44.40;;;;;;6245368;28;20048;-75
2021/05/07 07:30:13;;;;;;;4.47;0.70;;;20.90;44.70;;;;;;6244915;28;20025;-75
2021/05/07 07:33:14;;;;;;;2.30;0.82;;;20.90;45.60;;;;;;6245398;28;20025;-75
2021/05/07 07:36:14;;;;;;;1.63;0.68;;;20.90;44.90;;;;;;6244963;28;20133;-75
2021/05/07 07:39:19;;;;;;;5.10;0.80;;;20.90;44.80;;;;;;6191337;28;20185;-76
2021/05/07 07:42:19;;;;;;;1.57;0.60;;;20.90;44.90;;;;;;6194316;28;20113;-75
2021/05/07 07:45:20;;;;;;;2.13;0.75;;;20.90;44.90;;;;;;6194669;28;20788;-75
2021/05/07 07:48:20;;;;;;;1.40;0.80;;;20.90;45.60;;;;;;6193674;28;20089;-75
2021/05/07 07:51:21;;;;;;;1.10;0.70;;;20.90;44.90;;;;;;6187574;28;20037;-75
2021/05/07 07:54:21;;;;;;;4.38;0.93;;;20.90;45.00;;;;;;6194491;28;20493;-75
2021/05/07 07:57:22;;;;;;;1.25;0.60;;;20.90;45.00;;;;;;6194144;28;20014;-75
2021/05/07 08:00:22;;;;;;;2.03;0.93;;;20.90;44.90;;;;;;6193846;28;20032;-75
2021/05/07 08:03:23;;;;;;;2.20;0.90;;;20.90;44.90;;;;;;6193943;28;20174;-75
2021/05/07 08:06:24;;;;;;;2.28;0.82;;;20.90;45.00;;;;;;6193050;28;20537;-74
2021/05/07 08:09:24;;;;;;;0.90;0.70;;;20.90;44.80;;;;;;6206257;28;20037;-75
2021/05/07 08:12:25;;;;;;;1.05;0.68;;;20.90;44.90;;;;;;6245611;28;20018;-75
2021/05/07 08:15:26;;;;;;;1.42;0.70;;;20.90;44.90;;;;;;6244535;28;20056;-75
2021/05/07 08:18:27;;;;;;;1.35;0.50;;;20.90;45.00;;;;;;6245431;28;20026;-75
2021/05/07 08:21:29;;;;;;;1.92;0.68;;;20.90;45.00;;;;;;6244780;28;20029;-75
2021/05/07 08:24:30;;;;;;;1.35;0.80;;;20.90;45.10;;;;;;6220982;28;20381;-75
2021/05/07 08:27:30;;;;;;;1.45;0.63;;;20.90;45.10;;;;;;6227164;28;20084;-75
2021/05/07 08:30:31;;;;;;;1.98;0.77;;;20.90;45.00;;;;;;6245349;28;20028;-75
2021/05/07 08:33:31;;;;;;;1.15;0.65;;;20.90;45.00;;;;;;6244395;28;20021;-75
2021/05/07 08:36:32;;;;;;;0.70;0.50;;;20.90;45.00;;;;;;6244516;28;20104;-75
2021/05/07 08:39:33;;;;;;;1.17;0.70;;;20.90;44.90;;;;;;6245204;28;20025;-75
2021/05/07 08:42:33;;;;;;;1.17;0.63;;;20.90;44.90;;;;;;6244889;28;20026;-76
2021/05/07 08:45:34;;;;;;;2.40;0.75;;;20.90;45.00;;;;;;6245229;28;20116;-75
2021/05/07 08:48:38;;;;;;;1.35;0.73;;;20.90;45.00;;;;;;6244922;28;20468;-75
2021/05/07 08:51:39;;;;;;;1.48;0.70;;;20.90;45.00;;;;;;6245492;28;20438;-75
2021/05/07 08:54:40;;;;;;;0.93;0.60;;;20.90;45.10;;;;;;6244788;28;20072;-75
2021/05/07 08:57:41;;;;;;;0.93;0.63;;;20.90;45.20;;;;;;6245660;28;20045;-75
2021/05/07 09:00:41;;;;;;;1.35;0.47;;;20.90;45.10;;;;;;6249548;28;20488;-75
2021/05/07 09:03:46;;;;;;;0.95;0.75;;;20.90;45.10;;;;;;6248752;28;20053;-75
2021/05/07 09:06:52;;;;;;;1.73;0.60;;;20.90;45.10;;;;;;6247254;28;20446;-75
2021/05/07 09:10:01;;;;;;;1.27;0.77;;;20.90;45.10;;;;;;6249148;28;20468;-75
2021/05/07 09:13:03;;;;;;;1.35;0.57;;;20.90;45.00;;;;;;6249209;28;20450;-75
2021/05/07 09:16:06;;;;;;;0.98;0.73;;;20.90;45.00;;;;;;6247450;28;20033;-75
2021/05/07 09:19:17;;;;;;;1.40;0.60;;;20.90;45.00;;;;;;6248600;28;20121;-75
2021/05/07 09:22:22;;;;;;;1.48;0.70;;;20.90;45.10;;;;;;6248520;28;20460;-75
2021/05/07 09:25:23;;;;;;;1.13;0.75;;;20.90;45.10;;;;;;6226197;28;20030;-75
2021/05/07 09:28:24;;;;;;;0.80;0.50;;;20.90;45.20;;;;;;6229325;28;20022;-75
2021/05/07 09:31:24;;;;;;;0.65;0.50;;;20.90;45.20;;;;;;6247817;28;20032;-75
2021/05/07 09:34:25;;;;;;;0.70;0.40;;;20.90;45.20;;;;;;6248432;28;20126;-75
2021/05/07 09:37:25;;;;;;;1.00;0.50;;;20.90;45.20;;;;;;6248740;28;20037;-75
2021/05/07 09:40:26;;;;;;;2.22;0.63;;;20.90;45.20;;;;;;6248758;28;20490;-75
2021/05/07 09:43:30;;;;;;;1.33;0.95;;;20.90;45.10;;;;;;6247972;28;20092;-75
2021/05/07 09:46:34;;;;;;;0.95;0.50;;;20.90;45.20;;;;;;6248774;28;20126;-76
2021/05/07 09:49:35;;;;;;;1.58;0.70;;;20.90;45.20;;;;;;6247766;28;20025;-75
2021/05/07 09:52:35;;;;;;;1.30;0.60;;;20.90;45.20;;;;;;6248062;28;20057;-75
2021/05/07 09:55:36;;;;;;;1.13;0.77;;;20.90;45.10;;;;;;6246774;28;20057;-75
2021/05/07 09:58:38;;;;;;;0.82;0.60;;;20.90;45.30;;;;;;6248389;28;20427;-74
2021/05/07 10:01:39;;;;;;;0.85;0.60;;;20.90;45.20;;;;;;6248211;28;20025;-74
2021/05/07 10:04:39;;;;;;;0.50;0.50;;;20.90;45.20;;;;;;6257940;28;20044;-75
2021/05/07 10:07:40;;;;;;;0.70;0.40;;;20.90;45.20;;;;;;6272511;28;20029;-75
2021/05/07 10:10:42;;;;;;;1.70;0.60;;;20.90;45.30;;;;;;6254984;28;20090;-75
2021/05/07 10:13:44;;;;;;;0.45;0.32;;;20.90;45.20;;;;;;6248478;28;20025;-75
2021/05/07 10:16:44;;;;;;;1.13;0.60;;;20.90;45.10;;;;;;6247983;28;20025;-75
2021/05/07 10:19:45;;;;;;;1.27;0.55;;;20.90;45.30;;;;;;6247344;28;20096;-75
2021/05/07 10:22:46;;;;;;;0.50;0.35;;;20.90;45.30;;;;;;6247709;28;20461;-75
2021/05/07 10:25:57;;;;;;;1.05;0.40;;;20.90;45.30;;;;;;6247931;28;20163;-75
2021/05/07 10:28:58;;;;;;;0.77;0.50;;;20.90;45.20;;;;;;6248390;28;20113;-75
2021/05/07 10:31:59;;;;;;;0.57;0.43;;;20.90;45.30;;;;;;6247435;28;20029;-75
2021/05/07 10:35:00;;;;;;;0.75;0.40;;;20.90;45.30;;;;;;6246356;28;20080;-75
2021/05/07 10:38:27;;;;;;;0.50;0.40;;;20.90;45.30;;;;;;6247656;28;20024;-75
2021/05/07 10:41:34;;;;;;;1.45;0.80;;;20.90;45.30;;;;;;6245754;28;20403;-74
2021/05/07 10:44:41;;;;;;;0.80;0.55;;;20.90;45.30;;;;;;6246623;28;20014;-75
2021/05/07 10:47:42;;;;;;;0.50;0.45;;;20.90;45.30;;;;;;6247308;28;20064;-75
2021/05/07 10:50:45;;;;;;;0.77;0.55;;;20.90;45.30;;;;;;6247366;28;20431;-75
2021/05/07 10:53:45;;;;;;;1.30;0.45;;;20.90;45.30;;;;;;6247090;28;20021;-75
2021/05/07 10:56:46;;;;;;;0.80;0.50;;;20.90;45.40;;;;;;6246767;28;20032;-75
2021/05/07 10:59:54;;;;;;;0.50;0.40;;;20.90;45.30;;;;;;6246910;28;20074;-75
2021/05/07 11:02:55;;;;;;;0.52;0.45;;;20.90;45.30;;;;;;6246933;28;20454;-75
2021/05/07 11:05:55;;;;;;;2.25;0.43;;;20.90;45.30;;;;;;6244954;28;20388;-75
2021/05/07 11:08:56;;;;;;;1.15;0.45;;;20.90;45.20;;;;;;6244975;28;20087;-75
2021/05/07 11:12:04;;;;;;;1.35;0.60;;;20.90;45.30;;;;;;6246585;28;20044;-75
2021/05/07 11:15:13;;;;;;;0.50;0.43;;;20.90;45.30;;;;;;6246921;28;20025;-75
2021/05/07 11:18:13;;;;;;;1.25;0.63;;;20.90;45.30;;;;;;6246187;28;20029;-74
2021/05/07 11:21:15;;;;;;;0.35;0.35;;;20.90;45.30;;;;;;6243252;28;20048;-75
2021/05/07 11:24:15;;;;;;;0.57;0.43;;;20.90;45.30;;;;;;6246387;28;20040;-75
2021/05/07 11:27:26;;;;;;;1.15;0.40;;;20.90;45.20;;;;;;6245737;28;20056;-75
2021/05/07 11:30:26;;;;;;;0.52;0.32;;;20.90;45.90;;;;;;6245204;28;20029;-74
2021/05/07 11:33:29;;;;;;;0.35;0.32;;;20.90;45.30;;;;;;6246491;28;20037;-75
2021/05/07 11:36:30;;;;;;;1.00;0.45;;;20.90;45.20;;;;;;6245835;28;20083;-75
2021/05/07 11:39:31;;;;;;;0.57;0.47;;;20.90;45.20;;;;;;6245907;28;20384;-75
2021/05/07 11:42:35;;;;;;;0.90;0.50;;;20.90;45.30;;;;;;6244847;28;20029;-75
2021/05/07 11:45:36;;;;;;;0.40;0.30;;;20.90;45.20;;;;;;6246225;28;20211;-75
2021/05/07 11:48:38;;;;;;;0.40;0.35;;;20.90;45.30;;;;;;6245623;28;20045;-75
2021/05/07 11:51:46;;;;;;;0.80;0.40;;;20.90;45.20;;;;;;6246129;28;20032;-75
2021/05/07 11:54:47;;;;;;;0.60;0.40;;;20.90;45.20;;;;;;6245994;28;20112;-75
2021/05/07 11:58:07;;;;;;;0.93;0.38;;;20.90;45.20;;;;;;6245864;28;20373;-75
2021/05/07 12:01:09;;;;;;;0.70;0.40;;;20.90;45.30;;;;;;6245435;28;20026;-75
2021/05/07 12:04:10;;;;;;;0.50;0.40;;;20.90;45.30;;;;;;6245437;28;20037;-75
2021/05/07 12:07:32;;;;;;;1.20;0.60;;;20.90;45.20;;;;;;6243662;28;20373;-75
2021/05/07 12:10:36;;;;;;;0.40;0.40;;;20.90;45.20;;;;;;6245497;28;20022;-75
2021/05/07 12:13:37;;;;;;;0.50;0.50;;;20.90;45.20;;;;;;6245916;28;20548;-75
2021/05/07 12:16:39;;;;;;;0.98;0.63;;;21.00;45.30;;;;;;6245722;28;20104;-74
2021/05/07 12:19:40;;;;;;;0.50;0.40;;;21.00;45.20;;;;;;6245796;28;20024;-75
2021/05/07 12:22:41;;;;;;;0.70;0.50;;;20.90;45.20;;;;;;6245452;28;20060;-75
2021/05/07 12:25:47;;;;;;;1.02;0.60;;;20.90;45.30;;;;;;6245895;28;20025;-75
2021/05/07 12:28:55;;;;;;;0.47;0.35;;;21.00;45.10;;;;;;6244300;28;20083;-75
2021/05/07 12:32:02;;;;;;;0.70;0.60;;;20.90;45.10;;;;;;6243190;28;20499;-75
2021/05/07 12:35:03;;;;;;;0.70;0.40;;;20.90;45.10;;;;;;6250284;28;20065;-75
2021/05/07 12:38:27;;;;;;;1.13;0.60;;;20.90;45.20;;;;;;6250205;28;20025;-75
2021/05/07 12:41:28;;;;;;;0.40;0.30;;;20.90;45.30;;;;;;6250063;28;20080;-75
2021/05/07 12:44:29;;;;;;;0.60;0.40;;;20.90;45.10;;;;;;6249723;28;20052;-75
2021/05/07 12:47:29;;;;;;;0.50;0.30;;;20.90;45.20;;;;;;6249204;28;20065;-75
2021/05/07 12:50:30;;;;;;;0.70;0.50;;;20.90;45.00;;;;;;6249775;28;20056;-75
2021/05/07 12:53:31;;;;;;;0.63;0.40;;;20.90;45.10;;;;;;6249981;28;20025;-75
2021/05/07 12:56:31;;;;;;;0.63;0.38;;;20.90;45.00;;;;;;6250222;28;20071;-75
2021/05/07 12:59:32;;;;;;;0.75;0.40;;;20.90;45.00;;;;;;6248994;28;20430;-75
2021/05/07 13:02:33;;;;;;;0.82;0.50;;;20.90;45.10;;;;;;6249047;28;20068;-75
2021/05/07 13:05:34;;;;;;;0.45;0.40;;;20.90;45.20;;;;;;6249552;28;20025;-75
2021/05/07 13:08:35;;;;;;;0.47;0.32;;;20.90;45.10;;;;;;6248302;28;20030;-75
2021/05/07 13:11:36;;;;;;;0.60;0.45;;;20.90;45.20;;;;;;6249433;28;20083;-75
2021/05/07 13:14:36;;;;;;;0.68;0.40;;;20.90;45.20;;;;;;6249823;28;20029;-75
2021/05/07 13:17:37;;;;;;;0.60;0.40;;;20.90;45.20;;;;;;6249945;28;20083;-75
2021/05/07 13:20:38;;;;;;;0.88;0.50;;;20.90;45.00;;;;;;6248562;28;20380;-75
2021/05/07 13:23:39;;;;;;;0.75;0.50;;;20.90;45.00;;;;;;6249445;28;20022;-75
2021/05/07 13:26:39;;;;;;;0.85;0.47;;;20.90;45.10;;;;;;6249265;28;20370;-75
2021/05/07 13:29:40;;;;;;;0.38;0.35;;;20.90;45.10;;;;;;6249433;28;20018;-75
2021/05/07 13:32:41;;;;;;;0.47;0.30;;;20.90;45.10;;;;;;6249321;28;20029;-75
2021/05/07 13:35:45;;;;;;;0.47;0.30;;;20.90;44.90;;;;;;6247117;28;20045;-75
2021/05/07 13:38:46;;;;;;;0.35;0.30;;;20.90;45.00;;;;;;6248649;28;20025;-75
2021/05/07 13:41:46;;;;;;;0.32;0.30;;;20.90;45.00;;;;;;6248813;28;20032;-75
2021/05/07 13:44:47;;;;;;;0.50;0.30;;;20.90;45.00;;;;;;6246994;28;20384;-75
2021/05/07 13:47:47;;;;;;;0.90;0.35;;;20.90;44.90;;;;;;6196120;28;20062;-75
2021/05/07 13:50:49;;;;;;;0.63;0.40;;;21.00;45.10;;;;;;6196775;28;20030;-75
2021/05/07 13:53:49;;;;;;;0.90;0.60;;;20.90;45.00;;;;;;6196325;28;20418;-75
2021/05/07 13:56:50;;;;;;;0.60;0.47;;;20.90;45.10;;;;;;6196958;28;20034;-75
2021/05/07 13:59:51;;;;;;;0.35;0.25;;;20.90;45.10;;;;;;6196712;28;20058;-75
2021/05/07 14:02:52;;;;;;;1.13;0.60;;;20.90;45.10;;;;;;6196133;28;20043;-75
2021/05/07 14:05:53;;;;;;;0.95;0.40;;;21.00;45.20;;;;;;6190626;28;20030;-75
2021/05/07 14:08:53;;;;;;;0.45;0.38;;;21.00;45.10;;;;;;6194080;28;20038;-75
2021/05/07 14:11:55;;;;;;;0.45;0.32;;;21.00;45.10;;;;;;6179820;28;20090;-75
2021/05/07 14:14:55;;;;;;;0.40;0.30;;;21.00;44.90;;;;;;6188832;28;20084;-74
2021/05/07 14:17:56;;;;;;;0.40;0.38;;;20.90;45.00;;;;;;6212726;28;20033;-75
2021/05/07 14:20:57;;;;;;;0.55;0.40;;;20.90;45.00;;;;;;6247012;28;20017;-75
2021/05/07 14:23:58;;;;;;;0.85;0.40;;;20.90;45.10;;;;;;6247739;28;20107;-75
2021/05/07 14:26:59;;;;;;;0.30;0.30;;;20.90;45.00;;;;;;6247691;28;20438;-75
2021/05/07 14:29:59;;;;;;;0.65;0.47;;;20.90;45.10;;;;;;6247873;28;20029;-75
2021/05/07 14:33:00;;;;;;;0.88;0.47;;;20.90;45.20;;;;;;6247842;28;20314;-75
2021/05/07 14:36:01;;;;;;;1.33;0.43;;;20.90;45.10;;;;;;6245586;28;20519;-75
2021/05/07 14:39:03;;;;;;;0.60;0.60;;;20.90;45.20;;;;;;6244848;28;20357;-75
2021/05/07 14:42:04;;;;;;;0.43;0.40;;;20.90;45.20;;;;;;6248055;28;20033;-74
2021/05/07 14:45:06;;;;;;;0.40;0.32;;;20.90;45.30;;;;;;6228147;28;20480;-75
2021/05/07 14:48:06;;;;;;;0.60;0.32;;;20.90;45.50;;;;;;6246123;28;20466;-75
2021/05/07 14:51:07;;;;;;;5.88;0.75;;;20.80;46.00;;;;;;6245810;28;20033;-75
2021/05/07 14:54:07;;;;;;;2.38;0.80;;;20.80;44.90;;;;;;6246319;28;20502;-75
2021/05/07 14:57:08;;;;;;;1.38;0.52;;;20.80;44.30;;;;;;6246162;28;20033;-75
2021/05/07 15:00:09;;;;;;;6.10;0.93;;;20.80;43.80;;;;;;6243836;28;20036;-75
2021/05/07 15:03:10;;;;;;;6.43;0.90;;;20.80;43.60;;;;;;6237070;28;20052;-74
2021/05/07 15:06:11;;;;;;;3.60;0.80;;;20.80;43.50;;;;;;6241669;28;20391;-75
2021/05/07 15:09:11;;;;;;;3.35;0.68;;;20.80;43.60;;;;;;6246352;28;20614;-75
2021/05/07 15:12:12;;;;;;;1.70;0.57;;;20.80;43.90;;;;;;6244728;28;20104;-74
2021/05/07 15:15:18;;;;;;;3.03;0.60;;;20.80;43.40;;;;;;6235117;28;20112;-75
2021/05/07 15:18:19;;;;;;;2.60;0.75;;;20.80;43.70;;;;;;6244750;28;20457;-74
2021/05/07 15:21:20;;;;;;;1.98;0.95;;;20.70;42.80;;;;;;6245078;28;20032;-75
2021/05/07 15:24:20;;;;;;;3.70;0.85;;;20.70;44.00;;;;;;6244234;28;20026;-75
2021/05/07 15:27:21;;;;;;;3.00;1.02;;;20.70;43.30;;;;;;6245089;28;20072;-75
2021/05/07 15:30:22;;;;;;;8.23;0.88;;;20.70;42.60;;;;;;6245467;28;20025;-75
2021/05/07 15:33:22;;;;;;;18.08;1.00;;;20.80;42.10;;;;;;6245349;28;20025;-74
2021/05/07 15:36:23;;;;;;;5.28;0.90;;;20.80;42.10;;;;;;6243854;28;20127;-74
2021/05/07 15:39:25;;;;;;;3.72;0.90;;;20.80;42.00;;;;;;6245468;28;20112;-75
2021/05/07 15:42:25;;;;;;;3.83;0.70;;;20.70;42.10;;;;;;6245300;28;20017;-75
2021/05/07 15:45:26;;;;;;;3.53;0.77;;;20.80;42.70;;;;;;6245830;28;20510;-75
2021/05/07 15:48:27;;;;;;;3.63;0.70;;;20.70;42.70;;;;;;6244474;28;20032;-75
2021/05/07 15:51:27;;;;;;;4.45;0.70;;;20.70;42.60;;;;;;6245905;28;20083;-75